Time;durP1;ratioP1;P1;durP2;ratioP2;P2;SDS_P1;SDS_P2;PMS_P1;PMS_P2;Temp;Humidity;BMP_temperature;BMP_pressure;BME280_temperature;BME280_humidity;BME280_pressure;Samples;Min_cycle;Max_cycle;Signal;HPM_P1;HPM_P2
2021/05/23 00:02:23;;;;;;;2.03;0.90;;;21.20;41.40;;;;;;5052193;28;20085;-42
2021/05/23 00:04:49;;;;;;;2.80;0.60;;;21.20;41.40;;;;;;5056028;28;20059;-42
2021/05/23 00:07:16;;;;;;;1.00;0.60;;;21.20;41.30;;;;;;5059483;28;20364;-48
2021/05/23 00:09:42;;;;;;;1.08;0.57;;;21.20;41.20;;;;;;5055910;28;20047;-43
2021/05/23 00:12:13;;;;;;;1.08;0.50;;;21.20;41.20;;;;;;5048420;28;20033;-46
2021/05/23 00:14:40;;;;;;;1.80;0.70;;;21.20;41.20;;;;;;5052346;28;20132;-42
2021/05/23 00:17:06;;;;;;;2.67;0.77;;;21.20;41.30;;;;;;5051887;28;20029;-42
2021/05/23 00:19:31;;;;;;;2.63;0.75;;;21.20;41.20;;;;;;5057506;28;20108;-42
2021/05/23 00:21:57;;;;;;;1.75;1.10;;;21.20;41.30;;;;;;5053472;28;20573;-42
2021/05/23 00:24:26;;;;;;;4.63;0.77;;;21.20;41.30;;;;;;5051411;28;20033;-42
2021/05/23 00:26:52;;;;;;;1.33;0.63;;;21.20;41.30;;;;;;5050180;28;20163;-42
2021/05/23 00:29:19;;;;;;;1.80;0.65;;;21.10;41.20;;;;;;5052233;28;20056;-48
2021/05/23 00:31:45;;;;;;;1.70;0.60;;;21.10;41.30;;;;;;5058225;28;20028;-43
2021/05/23 00:34:11;;;;;;;1.85;0.60;;;21.10;41.30;;;;;;5052875;28;20056;-42
2021/05/23 00:36:37;;;;;;;1.00;0.57;;;21.10;41.20;;;;;;5056193;28;20025;-42
2021/05/23 00:39:04;;;;;;;2.75;1.40;;;21.10;41.20;;;;;;5052515;28;20017;-42
2021/05/23 00:41:30;;;;;;;1.55;0.60;;;21.10;41.20;;;;;;5049351;28;20032;-42
2021/05/23 00:43:55;;;;;;;1.77;0.77;;;21.10;41.30;;;;;;5053067;28;20377;-42
2021/05/23 00:46:21;;;;;;;1.63;0.55;;;21.10;41.30;;;;;;5051899;28;20087;-42
2021/05/23 00:48:46;;;;;;;3.15;0.57;;;21.10;41.40;;;;;;5051760;28;20107;-42
2021/05/23 00:51:12;;;;;;;2.17;0.73;;;21.10;41.30;;;;;;5052247;28;20064;-42
2021/05/23 00:53:38;;;;;;;1.85;0.63;;;21.10;41.30;;;;;;5052455;28;20027;-42
2021/05/23 00:56:04;;;;;;;1.98;0.65;;;21.00;41.10;;;;;;5050925;28;20064;-42
2021/05/23 00:58:29;;;;;;;1.63;0.70;;;21.00;41.20;;;;;;5063892;28;20090;-42
2021/05/23 01:00:55;;;;;;;1.52;0.70;;;21.00;41.30;;;;;;5054718;28;20407;-42
2021/05/23 01:03:26;;;;;;;1.40;0.70;;;21.00;41.30;;;;;;5052913;28;20035;-43
2021/05/23 01:06:04;;;;;;;6.93;1.05;;;21.10;41.30;;;;;;5052521;28;20029;-42
2021/05/23 01:08:31;;;;;;;1.50;0.63;;;21.10;41.40;;;;;;5042784;28;20474;-43
2021/05/23 01:11:07;;;;;;;2.58;0.50;;;21.00;41.30;;;;;;5054373;28;20031;-42
2021/05/23 01:13:39;;;;;;;0.90;0.52;;;21.00;41.30;;;;;;5049464;28;20040;-42
2021/05/23 01:16:14;;;;;;;1.58;0.60;;;21.00;41.40;;;;;;5051401;28;20032;-42
2021/05/23 01:18:58;;;;;;;2.17;1.20;;;21.00;41.40;;;;;;5051779;28;20041;-42
2021/05/23 01:21:26;;;;;;;0.90;0.50;;;21.00;41.50;;;;;;5044664;28;20021;-43
2021/05/23 01:24:00;;;;;;;1.25;0.60;;;21.00;41.40;;;;;;5053292;28;20033;-42
2021/05/23 01:26:34;;;;;;;2.15;0.70;;;21.00;41.50;;;;;;5042415;28;20069;-42
2021/05/23 01:29:10;;;;;;;2.15;0.70;;;21.00;41.50;;;;;;5053817;28;20060;-43
2021/05/23 01:31:39;;;;;;;1.55;0.60;;;21.00;41.60;;;;;;5043520;28;20025;-42
2021/05/23 01:34:06;;;;;;;1.00;0.50;;;21.00;41.60;;;;;;5053986;28;20430;-43
2021/05/23 01:36:41;;;;;;;2.85;0.70;;;21.10;41.60;;;;;;5051358;28;20470;-42
2021/05/23 01:39:09;;;;;;;1.00;0.50;;;21.10;41.60;;;;;;5050374;28;20110;-42
2021/05/23 01:41:36;;;;;;;2.65;0.70;;;21.00;41.70;;;;;;5049318;28;20406;-42
2021/05/23 01:44:03;;;;;;;1.55;0.60;;;21.00;41.80;;;;;;5049842;28;20036;-42
2021/05/23 01:46:29;;;;;;;0.85;0.65;;;21.00;41.80;;;;;;5051830;28;20025;-42
2021/05/23 01:48:55;;;;;;;1.05;0.50;;;21.00;41.80;;;;;;5046251;28;20029;-42
2021/05/23 01:51:20;;;;;;;1.55;0.70;;;21.00;41.80;;;;;;5051048;28;20086;-46
2021/05/23 01:53:46;;;;;;;1.73;0.60;;;21.00;41.90;;;;;;5051466;28;20025;-42
2021/05/23 01:56:12;;;;;;;1.13;0.50;;;21.00;41.90;;;;;;5049856;28;20032;-43
2021/05/23 01:58:38;;;;;;;1.98;0.50;;;20.90;41.90;;;;;;5050804;28;20060;-42
2021/05/23 02:01:04;;;;;;;2.40;0.57;;;20.90;42.00;;;;;;5052283;28;20078;-42
2021/05/23 02:03:30;;;;;;;0.70;0.40;;;20.90;42.10;;;;;;5050632;28;20112;-43
2021/05/23 02:05:59;;;;;;;0.93;0.75;;;20.90;42.10;;;;;;5050505;28;20040;-42
2021/05/23 02:08:26;;;;;;;0.85;0.47;;;20.90;42.10;;;;;;5053123;28;20032;-42
2021/05/23 02:10:57;;;;;;;0.60;0.50;;;20.90;42.10;;;;;;5051604;28;20048;-42
2021/05/23 02:13:22;;;;;;;0.60;0.40;;;20.90;42.10;;;;;;5054837;28;20072;-48
2021/05/23 02:15:48;;;;;;;1.85;0.57;;;20.90;42.10;;;;;;5051490;28;20447;-42
2021/05/23 02:18:14;;;;;;;2.67;0.82;;;21.00;42.10;;;;;;5048369;28;20025;-42
2021/05/23 02:20:40;;;;;;;1.55;0.50;;;21.00;42.20;;;;;;5050663;28;20064;-42
2021/05/23 02:23:11;;;;;;;2.65;0.40;;;20.90;42.10;;;;;;5057479;28;20043;-43
2021/05/23 02:25:37;;;;;;;2.33;0.40;;;20.90;42.20;;;;;;5047884;28;20497;-42
2021/05/23 02:28:07;;;;;;;2.05;0.40;;;21.00;42.40;;;;;;5052764;28;20079;-42
2021/05/23 02:30:35;;;;;;;1.02;0.43;;;21.00;42.30;;;;;;5052415;28;20037;-42
2021/05/23 02:33:04;;;;;;;0.70;0.50;;;20.90;42.50;;;;;;5050533;28;20493;-42
2021/05/23 02:35:34;;;;;;;2.20;0.70;;;21.00;42.50;;;;;;5050618;28;20021;-42
2021/05/23 02:38:01;;;;;;;1.08;0.52;;;20.90;42.60;;;;;;5050292;28;20041;-42
2021/05/23 02:40:29;;;;;;;1.25;0.40;;;20.90;42.90;;;;;;5054549;28;20033;-42
2021/05/23 02:42:55;;;;;;;1.88;0.52;;;20.80;43.10;;;;;;5050814;28;20059;-42
2021/05/23 02:45:21;;;;;;;1.58;0.43;;;20.80;43.20;;;;;;5052188;28;20055;-48
2021/05/23 02:47:48;;;;;;;3.05;0.43;;;20.70;43.10;;;;;;5056882;28;20037;-42
2021/05/23 02:50:21;;;;;;;0.93;0.40;;;20.70;44.10;;;;;;5055607;28;20466;-42
2021/05/23 02:52:46;;;;;;;1.00;0.30;;;20.60;43.60;;;;;;5055605;28;20299;-42
2021/05/23 02:55:13;;;;;;;1.15;0.30;;;20.70;43.60;;;;;;5053586;28;20585;-42
2021/05/23 02:57:41;;;;;;;1.40;0.45;;;20.80;43.50;;;;;;5050580;28;20041;-45
2021/05/23 03:00:10;;;;;;;0.63;0.30;;;20.80;43.50;;;;;;5060339;28;20037;-42
2021/05/23 03:02:36;;;;;;;1.05;0.32;;;20.90;43.60;;;;;;5052617;28;20577;-42
2021/05/23 03:05:04;;;;;;;1.38;0.50;;;20.90;43.50;;;;;;5055682;28;20033;-42
2021/05/23 03:07:39;;;;;;;0.55;0.40;;;21.00;43.50;;;;;;5052288;28;20490;-42
2021/05/23 03:10:06;;;;;;;0.73;0.50;;;21.00;43.50;;;;;;5054201;28;20072;-42
2021/05/23 03:12:32;;;;;;;0.50;0.30;;;21.00;43.40;;;;;;5051836;28;20037;-42
2021/05/23 03:14:58;;;;;;;1.15;0.55;;;21.00;43.60;;;;;;5058822;28;20059;-42
2021/05/23 03:17:26;;;;;;;0.77;0.38;;;21.00;43.70;;;;;;5053629;28;20029;-47
2021/05/23 03:19:52;;;;;;;2.58;0.77;;;21.00;43.80;;;;;;5056940;28;20474;-42
2021/05/23 03:22:18;;;;;;;1.30;0.40;;;21.00;43.80;;;;;;5053769;28;20074;-42
2021/05/23 03:24:44;;;;;;;2.00;0.30;;;21.00;43.80;;;;;;5057263;28;20032;-42
2021/05/23 03:27:10;;;;;;;0.60;0.40;;;21.00;43.80;;;;;;5054729;28;20374;-42
2021/05/23 03:29:35;;;;;;;0.38;0.35;;;21.00;43.80;;;;;;5046990;28;20033;-43
2021/05/23 03:32:01;;;;;;;1.50;0.43;;;21.00;43.80;;;;;;5049316;28;20037;-42
2021/05/23 03:34:27;;;;;;;1.58;0.52;;;21.00;43.90;;;;;;5050071;28;20036;-42
2021/05/23 03:36:52;;;;;;;0.50;0.30;;;21.00;44.00;;;;;;5049308;28;20094;-42
2021/05/23 03:39:18;;;;;;;3.58;0.75;;;21.10;43.80;;;;;;5040829;28;20029;-43
2021/05/23 03:41:43;;;;;;;1.00;0.30;;;21.00;43.70;;;;;;5050850;28;20491;-42
2021/05/23 03:44:09;;;;;;;3.42;0.90;;;21.00;43.80;;;;;;5054080;28;20025;-42
2021/05/23 03:46:35;;;;;;;3.03;0.50;;;21.00;44.00;;;;;;5056801;28;20029;-42
2021/05/23 03:49:00;;;;;;;3.33;0.50;;;21.10;44.10;;;;;;5052982;28;20359;-42
2021/05/23 03:51:30;;;;;;;3.13;0.80;;;21.10;44.00;;;;;;5059090;28;20034;-44
2021/05/23 03:53:56;;;;;;;3.60;0.65;;;21.10;44.10;;;;;;5052111;28;20054;-42
2021/05/23 03:56:22;;;;;;;2.42;0.38;;;21.10;44.10;;;;;;5060206;28;20940;-48
2021/05/23 03:58:47;;;;;;;3.97;0.50;;;21.00;44.00;;;;;;5051512;28;20037;-43
2021/05/23 04:01:14;;;;;;;1.35;0.40;;;21.00;44.00;;;;;;5058655;28;20071;-42
2021/05/23 04:03:40;;;;;;;3.15;0.43;;;21.00;44.10;;;;;;5052782;28;20031;-42
2021/05/23 04:06:06;;;;;;;3.53;0.60;;;20.90;44.10;;;;;;5054972;28;20155;-42
2021/05/23 04:08:31;;;;;;;1.25;0.52;;;20.90;44.20;;;;;;5052658;28;20040;-42
2021/05/23 04:11:04;;;;;;;3.03;0.52;;;20.90;44.20;;;;;;5052800;28;20032;-42
2021/05/23 04:13:32;;;;;;;2.72;0.40;;;20.90;44.20;;;;;;5050662;28;20260;-42
2021/05/23 04:15:58;;;;;;;3.72;0.50;;;20.90;44.20;;;;;;5053777;28;20120;-42
2021/05/23 04:18:23;;;;;;;0.65;0.30;;;20.90;44.10;;;;;;5061308;28;20099;-46
2021/05/23 04:20:49;;;;;;;8.40;0.90;;;20.90;44.10;;;;;;5054410;28;20027;-42
2021/05/23 04:23:15;;;;;;;0.52;0.40;;;20.90;44.20;;;;;;5058164;28;20040;-42
2021/05/23 04:25:41;;;;;;;2.17;0.50;;;20.90;44.30;;;;;;5052326;28;20106;-42
2021/05/23 04:28:06;;;;;;;2.97;0.60;;;20.90;44.40;;;;;;5052149;28;20028;-42
2021/05/23 04:30:32;;;;;;;4.53;0.40;;;20.90;44.40;;;;;;5050698;28;20465;-43
2021/05/23 04:32:58;;;;;;;2.05;0.40;;;20.90;44.60;;;;;;5052753;28;20107;-42
2021/05/23 04:35:25;;;;;;;4.80;0.52;;;21.00;44.40;;;;;;5052423;28;20037;-47
2021/05/23 04:37:51;;;;;;;3.03;0.47;;;21.00;44.50;;;;;;5056740;28;20480;-42
2021/05/23 04:40:18;;;;;;;5.60;0.77;;;21.00;44.60;;;;;;5054495;28;20502;-43
2021/05/23 04:42:44;;;;;;;5.78;0.65;;;21.10;45.30;;;;;;5056354;28;20625;-42
2021/05/23 04:45:14;;;;;;;5.80;0.70;;;21.10;44.60;;;;;;5051329;28;20410;-45
2021/05/23 04:47:40;;;;;;;4.78;0.80;;;21.10;44.60;;;;;;5049844;28;20056;-42
2021/05/23 04:50:07;;;;;;;6.70;0.75;;;21.10;44.80;;;;;;5055110;28;20446;-42
2021/05/23 04:52:33;;;;;;;4.93;0.77;;;21.10;45.00;;;;;;5050139;28;20555;-43
2021/05/23 04:54:58;;;;;;;7.00;0.50;;;21.10;45.10;;;;;;5057070;28;20490;-42
2021/05/23 04:57:25;;;;;;;1.38;0.40;;;21.10;45.20;;;;;;5050248;28;20052;-43
2021/05/23 04:59:52;;;;;;;7.35;0.55;;;21.10;45.20;;;;;;5050966;28;20033;-42
2021/05/23 05:02:19;;;;;;;13.98;1.23;;;21.10;45.30;;;;;;5049602;28;20053;-43
2021/05/23 05:04:45;;;;;;;8.15;0.60;;;21.10;45.30;;;;;;5051773;28;20072;-43
2021/05/23 05:07:10;;;;;;;2.60;0.38;;;21.10;45.30;;;;;;5054305;28;20067;-42
2021/05/23 05:09:36;;;;;;;1.77;0.50;;;21.10;45.20;;;;;;5059054;28;20033;-42
2021/05/23 05:12:02;;;;;;;3.55;0.50;;;21.10;45.40;;;;;;5050481;28;20029;-42
2021/05/23 05:14:28;;;;;;;3.10;1.50;;;21.20;45.40;;;;;;5051747;28;20047;-48
2021/05/23 05:16:53;;;;;;;6.82;0.85;;;21.10;45.60;;;;;;5056050;28;20470;-42
2021/05/23 05:19:19;;;;;;;5.13;0.70;;;21.10;45.40;;;;;;5054468;28;20032;-45
2021/05/23 05:21:45;;;;;;;6.70;0.57;;;21.10;45.40;;;;;;5040418;28;20028;-43
2021/05/23 05:24:11;;;;;;;4.15;0.52;;;21.10;45.50;;;;;;5054051;28;20516;-44
2021/05/23 05:26:38;;;;;;;3.45;0.50;;;21.10;45.40;;;;;;5046350;28;20036;-43
2021/05/23 05:29:04;;;;;;;6.47;0.80;;;21.20;45.50;;;;;;5051373;28;20036;-43
2021/05/23 05:31:30;;;;;;;3.47;0.60;;;21.10;45.40;;;;;;5054283;28;20482;-49
2021/05/23 05:33:58;;;;;;;6.15;0.90;;;21.20;45.30;;;;;;5052289;28;20025;-43
2021/05/23 05:36:24;;;;;;;5.18;0.95;;;21.10;45.40;;;;;;5050091;28;20044;-42
2021/05/23 05:38:50;;;;;;;8.40;0.73;;;21.10;45.50;;;;;;5051171;28;20025;-43
2021/05/23 05:41:17;;;;;;;1.27;0.40;;;21.10;45.50;;;;;;5056918;28;20062;-43
2021/05/23 05:43:43;;;;;;;2.80;0.60;;;21.10;45.50;;;;;;5050776;28;20112;-42
2021/05/23 05:46:08;;;;;;;1.73;0.38;;;21.10;45.50;;;;;;5060645;28;20040;-43
2021/05/23 05:48:34;;;;;;;2.15;0.47;;;21.20;45.40;;;;;;5054766;28;20146;-42
2021/05/23 05:51:01;;;;;;;5.95;0.50;;;21.10;45.30;;;;;;5058324;28;20044;-42
2021/05/23 05:53:27;;;;;;;4.05;0.50;;;21.10;45.50;;;;;;5051765;28;20032;-46
2021/05/23 05:55:52;;;;;;;2.70;0.60;;;21.10;45.50;;;;;;5052857;28;20056;-45
2021/05/23 05:58:18;;;;;;;4.97;0.68;;;21.10;45.50;;;;;;5053914;28;20049;-42
2021/05/23 06:00:44;;;;;;;4.47;0.60;;;21.20;45.60;;;;;;5050665;28;20059;-43
2021/05/23 06:03:09;;;;;;;4.32;0.45;;;21.20;45.50;;;;;;5053661;28;20495;-43
2021/05/23 06:05:35;;;;;;;2.92;0.52;;;21.20;45.50;;;;;;5052178;28;20047;-43
2021/05/23 06:08:00;;;;;;;2.63;0.43;;;21.20;45.60;;;;;;5053289;28;20071;-42
2021/05/23 06:10:26;;;;;;;5.82;0.50;;;21.20;45.50;;;;;;5058321;28;20351;-44
2021/05/23 06:12:52;;;;;;;4.78;0.47;;;21.20;45.60;;;;;;5049739;28;20025;-42
2021/05/23 06:15:18;;;;;;;3.40;0.60;;;21.20;45.80;;;;;;5054381;28;20385;-43
2021/05/23 06:17:43;;;;;;;2.05;0.80;;;21.20;45.80;;;;;;5048739;28;20029;-43
2021/05/23 06:20:10;;;;;;;4.97;0.55;;;21.20;46.00;;;;;;5045322;28;20021;-42
2021/05/23 06:22:35;;;;;;;1.13;0.38;;;21.20;45.70;;;;;;5049258;28;20116;-43
2021/05/23 06:25:01;;;;;;;4.93;0.70;;;21.20;46.00;;;;;;5051995;28;20482;-42
2021/05/23 06:27:27;;;;;;;1.65;0.60;;;21.20;45.60;;;;;;5051105;28;20085;-42
2021/05/23 06:29:53;;;;;;;2.38;0.77;;;21.30;45.60;;;;;;5054965;28;20466;-42
2021/05/23 06:32:18;;;;;;;3.22;0.45;;;21.30;45.60;;;;;;5049884;28;20448;-42
2021/05/23 06:34:44;;;;;;;3.20;0.70;;;21.30;45.70;;;;;;5056542;28;20440;-45
2021/05/23 06:37:10;;;;;;;2.63;0.75;;;21.40;46.30;;;;;;5059025;28;20033;-43
2021/05/23 06:39:35;;;;;;;6.38;0.70;;;21.40;46.60;;;;;;5050762;28;20017;-47
2021/05/23 06:42:01;;;;;;;10.75;1.63;;;21.50;46.70;;;;;;5055193;28;20131;-41
2021/05/23 06:44:27;;;;;;;5.35;0.70;;;21.50;46.90;;;;;;5054229;28;20075;-41
2021/05/23 06:46:52;;;;;;;7.22;0.75;;;21.50;46.60;;;;;;5049986;28;20032;-40
2021/05/23 06:49:18;;;;;;;12.48;0.80;;;21.40;46.30;;;;;;5059270;28;20536;-39
2021/05/23 06:51:44;;;;;;;10.35;1.05;;;21.40;46.70;;;;;;5050789;28;20146;-40
2021/05/23 06:54:10;;;;;;;4.15;0.90;;;21.40;47.00;;;;;;5056546;28;20028;-40
2021/05/23 06:56:36;;;;;;;7.07;0.82;;;21.50;47.00;;;;;;5049237;28;20398;-46
2021/05/23 06:59:02;;;;;;;8.10;1.17;;;21.50;46.80;;;;;;5055523;28;20104;-40
2021/05/23 07:01:28;;;;;;;6.03;0.68;;;21.50;47.30;;;;;;5054959;28;20025;-40
2021/05/23 07:03:53;;;;;;;9.85;1.02;;;21.60;47.10;;;;;;5057234;28;20085;-39
2021/05/23 07:06:20;;;;;;;12.45;1.15;;;21.60;47.10;;;;;;5050833;28;20490;-40
2021/05/23 07:08:45;;;;;;;9.70;1.23;;;21.60;47.10;;;;;;5049944;28;20056;-40
2021/05/23 07:11:11;;;;;;;11.52;1.52;;;21.60;47.20;;;;;;5048303;28;20048;-41
2021/05/23 07:13:37;;;;;;;6.57;1.27;;;21.50;46.90;;;;;;5049047;28;20025;-46
2021/05/23 07:16:03;;;;;;;12.05;1.00;;;21.40;47.20;;;;;;5055576;28;20029;-40
2021/05/23 07:18:29;;;;;;;13.05;1.65;;;21.00;46.50;;;;;;5046909;28;20037;-42
2021/05/23 07:20:59;;;;;;;5.05;0.80;;;21.10;46.90;;;;;;5054115;28;20083;-39
2021/05/23 07:23:25;;;;;;;15.13;1.55;;;21.20;47.30;;;;;;5047346;28;20021;-40
2021/05/23 07:25:50;;;;;;;6.50;0.95;;;21.20;47.50;;;;;;5048597;28;20470;-42
2021/05/23 07:28:16;;;;;;;9.18;0.95;;;21.30;47.20;;;;;;5060103;28;20047;-42
2021/05/23 07:30:42;;;;;;;11.30;0.98;;;21.30;47.00;;;;;;5054086;28;20025;-41
2021/05/23 07:33:11;;;;;;;7.97;0.80;;;21.30;47.30;;;;;;5052970;28;20520;-41
2021/05/23 07:35:36;;;;;;;7.68;0.70;;;21.40;46.90;;;;;;5055174;28;20060;-46
2021/05/23 07:38:03;;;;;;;6.50;1.00;;;21.40;46.90;;;;;;5054407;28;20064;-40
2021/05/23 07:40:28;;;;;;;26.20;1.70;;;21.40;46.80;;;;;;5059825;28;20035;-40
2021/05/23 07:42:54;;;;;;;18.65;2.35;;;21.50;47.20;;;;;;5053870;28;20032;-40
2021/05/23 07:45:20;;;;;;;8.30;1.65;;;21.50;47.40;;;;;;5052138;28;20127;-41
2021/05/23 07:47:45;;;;;;;11.43;1.70;;;21.50;46.70;;;;;;5052842;28;20063;-41
2021/05/23 07:50:13;;;;;;;27.92;1.73;;;21.50;47.00;;;;;;5052739;28;20025;-43
2021/05/23 07:52:39;;;;;;;10.27;1.10;;;21.40;47.30;;;;;;5056336;28;20040;-46
2021/05/23 07:55:06;;;;;;;10.27;1.20;;;21.20;47.60;;;;;;5057246;28;20043;-43
2021/05/23 07:57:32;;;;;;;7.35;0.80;;;21.10;48.00;;;;;;5061276;28;20478;-41
2021/05/23 07:59:57;;;;;;;22.70;1.58;;;21.20;48.20;;;;;;5050710;28;20063;-41
2021/05/23 08:02:23;;;;;;;15.68;1.20;;;21.30;48.30;;;;;;5055861;28;20079;-41
2021/05/23 08:04:49;;;;;;;14.48;2.25;;;21.40;48.10;;;;;;5055221;28;20473;-41
2021/05/23 08:07:14;;;;;;;6.88;1.00;;;21.40;48.20;;;;;;5048138;28;20062;-41
2021/05/23 08:09:41;;;;;;;6.75;1.30;;;21.40;47.90;;;;;;5051882;28;20029;-41
2021/05/23 08:12:06;;;;;;;4.80;0.80;;;21.50;47.80;;;;;;5052637;28;20025;-41
2021/05/23 08:14:32;;;;;;;5.05;1.35;;;21.40;48.00;;;;;;5053434;28;20044;-44
2021/05/23 08:16:58;;;;;;;8.25;0.70;;;21.40;48.20;;;;;;5048159;28;20611;-41
2021/05/23 08:19:24;;;;;;;4.22;0.80;;;21.40;48.50;;;;;;5058460;28;20032;-41
2021/05/23 08:21:49;;;;;;;7.25;0.80;;;21.50;48.30;;;;;;5056008;28;20033;-41
2021/05/23 08:24:15;;;;;;;4.95;0.80;;;21.50;48.20;;;;;;5058128;28;20024;-41
2021/05/23 08:26:41;;;;;;;6.63;0.80;;;21.40;48.30;;;;;;5050254;28;20057;-42
2021/05/23 08:29:07;;;;;;;3.63;0.77;;;21.30;47.70;;;;;;5057407;28;20039;-41
2021/05/23 08:31:33;;;;;;;4.65;0.90;;;21.40;47.90;;;;;;5053012;28;20033;-41
2021/05/23 08:33:59;;;;;;;2.97;0.63;;;21.40;48.20;;;;;;5057063;28;20033;-43
2021/05/23 08:36:25;;;;;;;4.38;0.80;;;21.50;48.30;;;;;;5058858;28;20028;-41
2021/05/23 08:38:50;;;;;;;2.45;0.40;;;21.50;48.20;;;;;;5052957;28;20025;-41
2021/05/23 08:41:18;;;;;;;4.32;0.85;;;21.60;48.20;;;;;;5050411;28;20031;-41
2021/05/23 08:43:45;;;;;;;5.85;0.95;;;21.50;48.30;;;;;;5056511;28;20520;-41
2021/05/23 08:46:11;;;;;;;2.95;0.52;;;21.30;48.30;;;;;;5051752;28;20055;-41
2021/05/23 08:48:39;;;;;;;8.90;0.93;;;21.30;48.50;;;;;;5051845;28;20033;-42
2021/05/23 08:51:05;;;;;;;2.38;0.57;;;21.40;48.40;;;;;;5052303;28;20040;-41
2021/05/23 08:53:31;;;;;;;5.10;0.80;;;21.40;48.30;;;;;;5050767;28;20436;-41
2021/05/23 08:55:57;;;;;;;3.65;0.57;;;21.50;48.30;;;;;;5050456;28;20037;-41
2021/05/23 08:58:28;;;;;;;2.50;0.60;;;21.50;48.30;;;;;;5052937;28;20382;-41
2021/05/23 09:00:55;;;;;;;2.63;0.77;;;21.50;48.30;;;;;;5048446;28;20123;-41
2021/05/23 09:03:21;;;;;;;2.00;0.68;;;21.50;48.40;;;;;;5052239;28;20390;-41
2021/05/23 09:05:49;;;;;;;3.38;0.52;;;21.50;48.40;;;;;;5050244;28;20395;-41
2021/05/23 09:08:21;;;;;;;3.15;0.70;;;21.50;48.50;;;;;;5051145;28;20029;-41
2021/05/23 09:10:56;;;;;;;3.38;0.73;;;21.50;48.50;;;;;;5050325;28;20486;-41
2021/05/23 09:13:31;;;;;;;4.43;0.90;;;21.50;48.50;;;;;;5049712;28;20025;-41
2021/05/23 09:16:05;;;;;;;4.40;0.73;;;21.50;49.50;;;;;;5051102;28;20131;-41
2021/05/23 09:19:04;;;;;;;10.25;1.20;;;21.50;49.70;;;;;;5051760;28;20028;-40
2021/05/23 09:21:33;;;;;;;5.90;0.98;;;21.50;50.60;;;;;;5007990;28;20049;-42
2021/05/23 09:24:11;;;;;;;6.25;0.95;;;21.50;50.70;;;;;;5051581;28;20029;-41
2021/05/23 09:26:47;;;;;;;4.57;0.82;;;21.50;54.40;;;;;;5042844;28;20040;-45
2021/05/23 09:29:22;;;;;;;4.30;0.88;;;21.50;51.80;;;;;;5051980;28;20025;-41
2021/05/23 09:32:02;;;;;;;6.13;1.40;;;21.40;53.20;;;;;;5051050;28;20021;-41
2021/05/23 09:34:29;;;;;;;7.50;1.20;;;21.30;54.90;;;;;;5033907;28;20040;-41
2021/05/23 09:36:55;;;;;;;3.05;1.15;;;21.40;51.10;;;;;;5049530;28;20057;-41
2021/05/23 09:39:21;;;;;;;11.25;1.25;;;21.40;50.90;;;;;;5052021;28;20029;-45
2021/05/23 09:41:48;;;;;;;2.30;0.60;;;21.40;49.10;;;;;;5050348;28;20087;-41
2021/05/23 09:44:15;;;;;;;1.23;0.50;;;21.10;47.00;;;;;;5057412;28;20029;-47
2021/05/23 09:46:59;;;;;;;5.50;0.80;;;20.60;46.60;;;;;;5044179;28;20033;-48
2021/05/23 09:49:27;;;;;;;6.53;1.02;;;20.80;48.60;;;;;;5052077;28;20028;-41
2021/05/23 09:52:02;;;;;;;7.35;0.90;;;21.00;49.90;;;;;;5055347;28;20020;-42
2021/05/23 09:54:41;;;;;;;7.15;1.05;;;21.20;49.70;;;;;;5056956;28;20112;-43
2021/05/23 09:57:12;;;;;;;5.82;1.25;;;21.30;49.80;;;;;;5046301;28;20045;-40
2021/05/23 09:59:38;;;;;;;10.27;1.08;;;21.40;50.60;;;;;;5035677;28;20454;-40
2021/05/23 10:02:08;;;;;;;13.20;1.35;;;21.50;50.20;;;;;;5049509;28;20036;-42
2021/05/23 10:04:36;;;;;;;4.60;1.10;;;21.50;50.20;;;;;;5033511;28;20079;-46
2021/05/23 10:07:06;;;;;;;44.47;2.15;;;21.60;50.60;;;;;;5050436;28;20033;-41
2021/05/23 10:09:35;;;;;;;8.35;1.20;;;21.60;51.50;;;;;;5058479;28;20543;-42
2021/05/23 10:12:02;;;;;;;5.95;1.23;;;21.70;51.10;;;;;;5047794;28;20047;-40
2021/05/23 10:14:28;;;;;;;13.38;1.40;;;21.70;51.10;;;;;;5050964;28;20082;-44
2021/05/23 10:16:54;;;;;;;11.63;2.75;;;21.70;51.50;;;;;;5045862;28;20140;-44
2021/05/23 10:19:23;;;;;;;10.52;1.52;;;21.70;51.60;;;;;;5051002;28;20040;-44
2021/05/23 10:21:50;;;;;;;17.17;1.60;;;21.80;51.60;;;;;;5048974;28;20577;-45
2021/05/23 10:24:23;;;;;;;13.20;1.70;;;21.80;51.60;;;;;;5050758;28;20021;-43
2021/05/23 10:26:53;;;;;;;6.93;1.35;;;21.70;51.50;;;;;;5046312;28;20037;-40
2021/05/23 10:29:19;;;;;;;9.18;1.20;;;21.70;50.50;;;;;;5050879;28;20037;-43
2021/05/23 10:31:45;;;;;;;12.88;1.20;;;21.70;50.70;;;;;;5051513;28;20031;-50
2021/05/23 10:34:10;;;;;;;5.30;0.90;;;21.70;50.70;;;;;;5050753;28;20112;-42
2021/05/23 10:36:39;;;;;;;7.15;1.15;;;21.60;50.50;;;;;;5048357;28;20513;-42
2021/05/23 10:39:08;;;;;;;9.90;1.42;;;21.60;50.40;;;;;;5050398;28;20035;-42
2021/05/23 10:41:34;;;;;;;4.47;0.90;;;21.60;50.30;;;;;;5049381;28;20063;-42
2021/05/23 10:44:04;;;;;;;10.40;1.77;;;21.60;50.20;;;;;;5050499;28;20056;-42
2021/05/23 10:46:30;;;;;;;6.32;1.40;;;21.60;50.50;;;;;;5048726;28;20482;-42
2021/05/23 10:48:58;;;;;;;6.13;1.00;;;21.70;50.20;;;;;;5047876;28;20112;-43
2021/05/23 10:51:24;;;;;;;8.43;1.58;;;21.60;50.10;;;;;;5049057;28;20057;-44
2021/05/23 10:53:53;;;;;;;8.30;1.50;;;21.60;50.00;;;;;;5050034;28;20043;-42
2021/05/23 10:56:24;;;;;;;12.85;1.63;;;21.60;50.00;;;;;;5047924;28;20098;-43
2021/05/23 10:59:01;;;;;;;5.30;1.02;;;21.60;49.90;;;;;;5051596;28;20086;-42
2021/05/23 11:02:06;;;;;;;5.75;1.75;;;21.60;49.80;;;;;;5054650;28;20060;-42
2021/05/23 11:04:38;;;;;;;6.63;1.00;;;21.60;49.60;;;;;;4993426;28;20073;-42
2021/05/23 11:07:11;;;;;;;5.47;1.40;;;21.60;49.60;;;;;;4996369;28;20062;-42
2021/05/23 11:09:37;;;;;;;7.45;1.33;;;21.60;49.50;;;;;;4993557;28;20045;-42
2021/05/23 11:12:08;;;;;;;4.35;1.00;;;21.60;49.50;;;;;;4997616;28;20553;-42
2021/05/23 11:14:33;;;;;;;3.95;1.05;;;21.60;49.50;;;;;;4993145;28;20030;-42
2021/05/23 11:16:59;;;;;;;4.18;1.48;;;21.60;49.40;;;;;;4996839;28;20052;-42
2021/05/23 11:19:32;;;;;;;6.13;1.33;;;21.60;49.30;;;;;;4992890;28;20117;-42
2021/05/23 11:21:59;;;;;;;5.30;1.13;;;21.60;49.30;;;;;;4991870;28;20049;-42
2021/05/23 11:24:30;;;;;;;5.75;1.50;;;21.60;49.20;;;;;;4992637;28;20431;-42
2021/05/23 11:26:56;;;;;;;5.10;1.07;;;21.60;49.20;;;;;;4997172;28;20034;-44
2021/05/23 11:29:25;;;;;;;5.90;1.50;;;21.60;49.10;;;;;;4992277;28;20038;-42
2021/05/23 11:31:51;;;;;;;4.50;0.90;;;21.60;49.10;;;;;;4991910;28;20496;-44
2021/05/23 11:34:20;;;;;;;3.97;0.95;;;21.60;48.90;;;;;;4998913;28;20113;-41
2021/05/23 11:36:47;;;;;;;7.10;1.00;;;21.60;48.80;;;;;;5036516;28;20041;-49
2021/05/23 11:39:14;;;;;;;6.57;1.30;;;21.60;48.80;;;;;;5054269;28;20082;-42
2021/05/23 11:41:43;;;;;;;2.30;0.90;;;21.60;48.70;;;;;;5052710;28;20515;-42
2021/05/23 11:44:11;;;;;;;4.38;0.90;;;21.60;48.70;;;;;;5049909;28;20032;-42
2021/05/23 11:46:43;;;;;;;6.70;1.20;;;21.60;48.60;;;;;;5053061;28;20025;-42
2021/05/23 11:49:18;;;;;;;3.25;1.00;;;21.60;48.60;;;;;;5053598;28;20100;-42
2021/05/23 11:51:43;;;;;;;4.93;0.90;;;21.60;48.50;;;;;;5054154;28;20429;-46
2021/05/23 11:54:09;;;;;;;3.40;1.00;;;21.60;48.50;;;;;;5052932;28;20025;-44
2021/05/23 11:56:36;;;;;;;3.00;1.23;;;21.60;48.50;;;;;;5051881;28;20525;-42
2021/05/23 11:59:07;;;;;;;8.68;1.40;;;21.60;48.40;;;;;;5053094;28;20098;-42
2021/05/23 12:01:38;;;;;;;2.33;0.73;;;21.60;48.30;;;;;;5054182;28;20472;-42
2021/05/23 12:04:16;;;;;;;4.45;1.00;;;21.60;48.30;;;;;;5052942;28;20024;-46
2021/05/23 12:06:42;;;;;;;3.60;0.93;;;21.60;48.20;;;;;;5054376;28;20037;-42
2021/05/23 12:09:18;;;;;;;4.15;1.40;;;21.70;48.30;;;;;;5052566;28;20021;-46
2021/05/23 12:12:03;;;;;;;2.97;0.90;;;21.70;48.10;;;;;;5051899;28;20378;-42
2021/05/23 12:14:35;;;;;;;3.92;1.05;;;21.70;48.10;;;;;;5052811;28;20079;-42
2021/05/23 12:17:00;;;;;;;3.20;1.52;;;21.70;48.00;;;;;;5051793;28;20424;-43
2021/05/23 12:19:45;;;;;;;2.88;0.70;;;21.70;48.00;;;;;;5053169;28;20029;-43
2021/05/23 12:22:13;;;;;;;1.63;0.65;;;21.70;47.90;;;;;;5053176;28;20049;-43
2021/05/23 12:24:40;;;;;;;1.95;0.68;;;21.70;47.80;;;;;;5052822;28;20031;-42
2021/05/23 12:27:05;;;;;;;2.75;0.70;;;21.70;47.80;;;;;;5049990;28;20120;-42
2021/05/23 12:29:31;;;;;;;4.95;0.80;;;21.70;47.70;;;;;;5053250;28;20108;-45
2021/05/23 12:31:57;;;;;;;2.28;0.90;;;21.80;47.80;;;;;;5051942;28;20079;-43
2021/05/23 12:34:22;;;;;;;1.92;0.63;;;21.80;47.70;;;;;;5053231;28;20024;-42
2021/05/23 12:36:48;;;;;;;3.47;0.73;;;21.80;47.60;;;;;;5052304;28;20064;-49
2021/05/23 12:39:21;;;;;;;3.17;0.80;;;21.80;47.60;;;;;;5048166;28;20034;-42
2021/05/23 12:41:50;;;;;;;2.97;0.70;;;21.80;47.50;;;;;;5051803;28;20040;-49
2021/05/23 12:44:24;;;;;;;2.50;0.70;;;21.80;47.50;;;;;;5052835;28;20036;-43
2021/05/23 12:46:52;;;;;;;3.55;0.73;;;21.80;47.50;;;;;;5050057;28;20111;-44
2021/05/23 12:49:25;;;;;;;2.55;0.70;;;21.70;47.50;;;;;;5050565;28;20471;-43